Cattown, New York
Current Conditions -  °F | °C
As of 12:35 AM on Sunday 23 Nov 2014 (Local Time) from KNY0 Reporting Station
Overcast Overcast  
Wind Chill: 28°   Ceiling: 2200
Heat Index: 35°   Visibility: 7mi
Dew Point: 33°   Wind: 8mph
Humidity: 93%   Direction: 250°WSW
Pressure: 30.05"   Gusts: NA
Location:  42.7373°N, 74.9926°W
Report Text: KNY0 230535Z AUTO 25007KT 7SM OVC022 02/01 A3005 RMK AO2 P0002 T00150005
Loading
Personal Weather Stations






























Interactive Weather Map New forecast layout! Learn more

10-Day Weather Forecast

Advertisements
Track Severe Weather on mobile